Hauptseite
METAR-TAF:

METAR-TAF

Flughäfen :

Rabat, Marokko

Flughafen Rabat-Salé

Breite: 34-03N, Länge: 006-46W, Höhe: 84 m

Beobachtung

Neuester Wetterbericht von vor 16 Minuten, um 14:30 UTC
Wind 4 kt aus Nordwest, variierte zwischen West und Nord
Temperatur 23°C
Luftfeuchtigkeit 17%
Luftdruck 1018 hPa
Sichtweite: 7000 m

METAR: GMME 241430Z 31004KT 270V350 7000 NSC 23/M03 Q1018 NOSIG

Zeit: 14:46 (14:46 UTC)

Prognose

Neuester Wetterbericht von vor 3 Stunden und 46 Minuten, um 11:00 UTC
Gültige Prognose vom 24 um 12 UTC bis 25 um 18 UTC
Wind 5 kt aus Süd/Südost
Sichtweite: 7000 m

TAF: GMME 241100Z 2412/2518 15005KT 7000 NSC

Wetterbeobachtungen und Prognosen von mehr als 4000 Flughäfen (METAR und TAF Bericht).

Die verfügbaren Stationen werden durch gelbe und rote Markierungen auf der Karte dargestellt.

Führen Sie die Maus auf sie, um den Namen der Station zu sehen.

Darauf klicken, um die Beobachtung von Wetterbeobachtungen und Prognosen zu sehen.

Um die Karte zu ändern : klicken Sie auf den grünen Tasten mit einem schwarzen Kreuz Zum Vergrößern, auf den grünen Button mit einem Gedankenstrich zu verkleinern, oder auf die grünen Pfeile für benachbarte Karten.


METAR-TAF: